Terminal Aerodrome Forecast
Issued by NWS

Home | Current Version | Previous Version | Text Only | Print | Product List | Glossary On
Versions: 1 2 3 4 5 6 7 8 9 10 11 12 13 14 15 16 17 18 19 20 21
367
FTPA31 PHFO 190520
TAFHLI
TAF
PHLI 190520Z 1906/2006 VRB06KT P6SM VCTS SCT020CB OVC040
      TEMPO 1906/1910 VRB10G20KT 5SM TSRA BR SCT010 BKN018CB OVC035=

USA.gov is the U.S. government's official web portal to all federal, state and local government web resources and services.